sensor_id;sensor_type;location;lat;lon;timestamp;P1;durP1;ratioP1;P2;durP2;ratioP2
16906;SDS011;8570;52.380;4.654;2023-12-04T00:01:04;18.63;;;11.77;;
16906;SDS011;8570;52.380;4.654;2023-12-04T00:06:06;20.07;;;12.00;;
16906;SDS011;8570;52.380;4.654;2023-12-04T00:11:09;21.83;;;12.43;;
16906;SDS011;8570;52.380;4.654;2023-12-04T00:16:13;21.10;;;11.67;;
16906;SDS011;8570;52.380;4.654;2023-12-04T00:21:15;18.80;;;11.40;;
16906;SDS011;8570;52.380;4.654;2023-12-04T00:26:17;18.90;;;11.33;;
16906;SDS011;8570;52.380;4.654;2023-12-04T00:31:20;19.87;;;11.80;;
16906;SDS011;8570;52.380;4.654;2023-12-04T00:36:22;19.83;;;10.93;;
16906;SDS011;8570;52.380;4.654;2023-12-04T00:41:24;19.70;;;11.83;;
16906;SDS011;8570;52.380;4.654;2023-12-04T00:46:30;19.40;;;11.50;;
16906;SDS011;8570;52.380;4.654;2023-12-04T00:51:38;21.80;;;11.37;;
16906;SDS011;8570;52.380;4.654;2023-12-04T00:56:40;19.63;;;12.13;;
16906;SDS011;8570;52.380;4.654;2023-12-04T01:01:44;22.17;;;11.73;;
16906;SDS011;8570;52.380;4.654;2023-12-04T01:06:47;19.57;;;11.03;;
16906;SDS011;8570;52.380;4.654;2023-12-04T01:11:49;18.20;;;11.63;;
16906;SDS011;8570;52.380;4.654;2023-12-04T01:16:52;20.87;;;11.73;;
16906;SDS011;8570;52.380;4.654;2023-12-04T01:21:55;23.20;;;12.40;;
16906;SDS011;8570;52.380;4.654;2023-12-04T01:26:57;18.63;;;11.63;;
16906;SDS011;8570;52.380;4.654;2023-12-04T01:32:00;22.17;;;12.57;;
16906;SDS011;8570;52.380;4.654;2023-12-04T01:37:02;19.07;;;11.50;;
16906;SDS011;8570;52.380;4.654;2023-12-04T01:42:04;19.97;;;11.57;;
16906;SDS011;8570;52.380;4.654;2023-12-04T01:47:08;20.07;;;11.73;;
16906;SDS011;8570;52.380;4.654;2023-12-04T01:52:10;21.83;;;11.37;;
16906;SDS011;8570;52.380;4.654;2023-12-04T01:57:13;19.17;;;11.77;;
16906;SDS011;8570;52.380;4.654;2023-12-04T02:02:16;19.20;;;10.77;;
16906;SDS011;8570;52.380;4.654;2023-12-04T02:07:18;18.20;;;11.03;;
16906;SDS011;8570;52.380;4.654;2023-12-04T02:12:20;17.63;;;11.30;;
16906;SDS011;8570;52.380;4.654;2023-12-04T02:17:23;19.40;;;11.40;;
16906;SDS011;8570;52.380;4.654;2023-12-04T02:22:26;18.63;;;10.77;;
16906;SDS011;8570;52.380;4.654;2023-12-04T02:27:31;17.87;;;11.70;;
16906;SDS011;8570;52.380;4.654;2023-12-04T02:32:40;18.90;;;11.50;;
16906;SDS011;8570;52.380;4.654;2023-12-04T02:37:46;17.53;;;10.67;;
16906;SDS011;8570;52.380;4.654;2023-12-04T02:42:50;18.13;;;11.80;;
16906;SDS011;8570;52.380;4.654;2023-12-04T02:47:51;18.50;;;11.10;;
16906;SDS011;8570;52.380;4.654;2023-12-04T02:52:56;20.07;;;11.93;;
16906;SDS011;8570;52.380;4.654;2023-12-04T02:57:59;18.47;;;11.10;;
16906;SDS011;8570;52.380;4.654;2023-12-04T03:03:01;20.87;;;12.20;;
16906;SDS011;8570;52.380;4.654;2023-12-04T03:08:03;18.43;;;11.40;;
16906;SDS011;8570;52.380;4.654;2023-12-04T03:13:07;21.17;;;11.50;;
16906;SDS011;8570;52.380;4.654;2023-12-04T03:18:08;18.30;;;11.23;;
16906;SDS011;8570;52.380;4.654;2023-12-04T03:23:10;18.90;;;10.70;;
16906;SDS011;8570;52.380;4.654;2023-12-04T03:28:13;17.50;;;11.37;;
16906;SDS011;8570;52.380;4.654;2023-12-04T03:33:16;18.07;;;11.27;;
16906;SDS011;8570;52.380;4.654;2023-12-04T03:38:17;19.07;;;10.77;;
16906;SDS011;8570;52.380;4.654;2023-12-04T03:43:21;19.53;;;11.20;;
16906;SDS011;8570;52.380;4.654;2023-12-04T03:48:23;16.30;;;10.73;;
16906;SDS011;8570;52.380;4.654;2023-12-04T03:53:24;17.87;;;10.53;;
16906;SDS011;8570;52.380;4.654;2023-12-04T03:58:28;15.73;;;10.53;;
16906;SDS011;8570;52.380;4.654;2023-12-04T04:03:30;18.37;;;9.90;;
16906;SDS011;8570;52.380;4.654;2023-12-04T04:08:32;17.10;;;10.43;;
16906;SDS011;8570;52.380;4.654;2023-12-04T04:13:35;16.70;;;10.37;;
16906;SDS011;8570;52.380;4.654;2023-12-04T04:18:37;15.17;;;10.10;;
16906;SDS011;8570;52.380;4.654;2023-12-04T04:23:39;15.40;;;10.27;;
16906;SDS011;8570;52.380;4.654;2023-12-04T04:28:42;15.33;;;9.83;;
16906;SDS011;8570;52.380;4.654;2023-12-04T04:33:44;16.57;;;10.27;;
16906;SDS011;8570;52.380;4.654;2023-12-04T04:38:46;15.30;;;9.67;;
16906;SDS011;8570;52.380;4.654;2023-12-04T04:43:49;15.97;;;10.43;;
16906;SDS011;8570;52.380;4.654;2023-12-04T04:48:51;16.80;;;10.23;;
16906;SDS011;8570;52.380;4.654;2023-12-04T04:53:55;16.60;;;9.93;;
16906;SDS011;8570;52.380;4.654;2023-12-04T04:58:59;14.60;;;9.93;;
16906;SDS011;8570;52.380;4.654;2023-12-04T05:04:00;15.57;;;9.93;;
16906;SDS011;8570;52.380;4.654;2023-12-04T05:09:02;19.37;;;11.17;;
16906;SDS011;8570;52.380;4.654;2023-12-04T05:14:06;15.03;;;9.50;;
16906;SDS011;8570;52.380;4.654;2023-12-04T05:19:08;15.37;;;10.10;;
16906;SDS011;8570;52.380;4.654;2023-12-04T05:24:09;16.97;;;10.17;;
16906;SDS011;8570;52.380;4.654;2023-12-04T05:29:13;13.87;;;9.70;;
16906;SDS011;8570;52.380;4.654;2023-12-04T05:34:15;16.63;;;10.37;;
16906;SDS011;8570;52.380;4.654;2023-12-04T05:39:19;16.70;;;10.73;;
16906;SDS011;8570;52.380;4.654;2023-12-04T05:44:22;16.23;;;10.50;;
16906;SDS011;8570;52.380;4.654;2023-12-04T05:49:24;15.73;;;9.47;;
16906;SDS011;8570;52.380;4.654;2023-12-04T05:54:26;15.73;;;10.50;;
16906;SDS011;8570;52.380;4.654;2023-12-04T05:59:29;16.50;;;10.03;;
16906;SDS011;8570;52.380;4.654;2023-12-04T06:04:31;16.90;;;10.93;;
16906;SDS011;8570;52.380;4.654;2023-12-04T06:09:33;16.00;;;9.53;;
16906;SDS011;8570;52.380;4.654;2023-12-04T06:14:38;18.93;;;10.03;;
16906;SDS011;8570;52.380;4.654;2023-12-04T06:19:40;16.43;;;10.37;;
16906;SDS011;8570;52.380;4.654;2023-12-04T06:24:42;14.13;;;9.57;;
16906;SDS011;8570;52.380;4.654;2023-12-04T06:29:46;17.20;;;10.63;;
16906;SDS011;8570;52.380;4.654;2023-12-04T06:34:49;16.43;;;9.77;;
16906;SDS011;8570;52.380;4.654;2023-12-04T06:39:51;14.20;;;9.83;;
16906;SDS011;8570;52.380;4.654;2023-12-04T06:45:02;14.83;;;9.70;;
16906;SDS011;8570;52.380;4.654;2023-12-04T06:50:10;14.03;;;9.10;;
16906;SDS011;8570;52.380;4.654;2023-12-04T06:55:12;12.70;;;9.20;;
16906;SDS011;8570;52.380;4.654;2023-12-04T07:00:16;16.13;;;10.23;;
16906;SDS011;8570;52.380;4.654;2023-12-04T07:05:19;16.23;;;8.70;;
16906;SDS011;8570;52.380;4.654;2023-12-04T07:10:21;13.57;;;9.37;;
16906;SDS011;8570;52.380;4.654;2023-12-04T07:15:25;13.50;;;9.60;;
16906;SDS011;8570;52.380;4.654;2023-12-04T07:20:27;13.90;;;9.13;;
16906;SDS011;8570;52.380;4.654;2023-12-04T07:25:29;14.17;;;9.20;;
16906;SDS011;8570;52.380;4.654;2023-12-04T07:30:32;15.70;;;9.50;;
16906;SDS011;8570;52.380;4.654;2023-12-04T07:35:34;14.70;;;9.40;;
16906;SDS011;8570;52.380;4.654;2023-12-04T07:40:36;15.20;;;9.60;;
16906;SDS011;8570;52.380;4.654;2023-12-04T07:45:42;15.30;;;9.97;;
16906;SDS011;8570;52.380;4.654;2023-12-04T07:50:44;14.27;;;9.07;;
16906;SDS011;8570;52.380;4.654;2023-12-04T07:55:45;12.13;;;8.60;;
16906;SDS011;8570;52.380;4.654;2023-12-04T08:00:49;16.07;;;10.10;;
16906;SDS011;8570;52.380;4.654;2023-12-04T08:05:53;11.53;;;8.53;;
16906;SDS011;8570;52.380;4.654;2023-12-04T08:10:55;12.00;;;8.83;;
16906;SDS011;8570;52.380;4.654;2023-12-04T08:15:58;12.60;;;8.97;;
16906;SDS011;8570;52.380;4.654;2023-12-04T08:21:01;13.10;;;9.17;;
16906;SDS011;8570;52.380;4.654;2023-12-04T08:26:04;13.43;;;9.20;;
16906;SDS011;8570;52.380;4.654;2023-12-04T08:31:10;13.43;;;8.73;;
16906;SDS011;8570;52.380;4.654;2023-12-04T08:36:12;12.70;;;8.53;;
16906;SDS011;8570;52.380;4.654;2023-12-04T08:41:15;13.17;;;8.73;;
16906;SDS011;8570;52.380;4.654;2023-12-04T08:46:18;13.03;;;8.87;;
16906;SDS011;8570;52.380;4.654;2023-12-04T08:51:20;10.53;;;8.10;;
16906;SDS011;8570;52.380;4.654;2023-12-04T08:56:28;11.57;;;7.63;;
16906;SDS011;8570;52.380;4.654;2023-12-04T09:01:32;11.80;;;8.40;;
16906;SDS011;8570;52.380;4.654;2023-12-04T09:06:34;10.10;;;7.67;;
16906;SDS011;8570;52.380;4.654;2023-12-04T09:11:35;12.80;;;8.50;;
16906;SDS011;8570;52.380;4.654;2023-12-04T09:16:42;11.23;;;8.20;;
16906;SDS011;8570;52.380;4.654;2023-12-04T09:21:44;9.87;;;7.77;;
16906;SDS011;8570;52.380;4.654;2023-12-04T09:26:49;10.33;;;7.43;;
16906;SDS011;8570;52.380;4.654;2023-12-04T09:31:52;9.73;;;7.20;;
16906;SDS011;8570;52.380;4.654;2023-12-04T09:36:57;10.30;;;7.10;;
16906;SDS011;8570;52.380;4.654;2023-12-04T09:41:59;9.93;;;7.03;;
16906;SDS011;8570;52.380;4.654;2023-12-04T09:47:04;12.47;;;7.90;;
16906;SDS011;8570;52.380;4.654;2023-12-04T09:52:11;9.90;;;7.23;;
16906;SDS011;8570;52.380;4.654;2023-12-04T09:57:13;10.27;;;7.27;;
16906;SDS011;8570;52.380;4.654;2023-12-04T10:02:17;10.27;;;7.07;;
16906;SDS011;8570;52.380;4.654;2023-12-04T10:07:20;10.43;;;7.33;;
16906;SDS011;8570;52.380;4.654;2023-12-04T10:12:21;10.27;;;7.23;;
16906;SDS011;8570;52.380;4.654;2023-12-04T10:17:25;9.10;;;7.17;;
16906;SDS011;8570;52.380;4.654;2023-12-04T10:22:34;8.57;;;6.50;;
16906;SDS011;8570;52.380;4.654;2023-12-04T10:27:36;9.00;;;7.10;;
16906;SDS011;8570;52.380;4.654;2023-12-04T10:32:42;9.10;;;6.90;;
16906;SDS011;8570;52.380;4.654;2023-12-04T10:37:44;11.50;;;7.13;;
16906;SDS011;8570;52.380;4.654;2023-12-04T10:42:46;10.17;;;7.13;;
16906;SDS011;8570;52.380;4.654;2023-12-04T10:47:49;10.93;;;7.33;;
16906;SDS011;8570;52.380;4.654;2023-12-04T10:52:54;9.77;;;6.57;;
16906;SDS011;8570;52.380;4.654;2023-12-04T10:57:58;10.50;;;7.20;;
16906;SDS011;8570;52.380;4.654;2023-12-04T11:03:07;9.40;;;6.93;;
16906;SDS011;8570;52.380;4.654;2023-12-04T11:08:11;9.17;;;6.87;;
16906;SDS011;8570;52.380;4.654;2023-12-04T11:13:17;12.70;;;6.90;;
16906;SDS011;8570;52.380;4.654;2023-12-04T11:18:30;9.37;;;6.40;;
16906;SDS011;8570;52.380;4.654;2023-12-04T11:23:40;7.70;;;6.17;;
16906;SDS011;8570;52.380;4.654;2023-12-04T11:28:44;9.43;;;6.70;;
16906;SDS011;8570;52.380;4.654;2023-12-04T11:33:48;9.77;;;6.53;;
16906;SDS011;8570;52.380;4.654;2023-12-04T11:38:50;11.00;;;6.53;;
16906;SDS011;8570;52.380;4.654;2023-12-04T11:43:52;10.30;;;7.10;;
16906;SDS011;8570;52.380;4.654;2023-12-04T11:54:28;10.20;;;6.73;;
16906;SDS011;8570;52.380;4.654;2023-12-04T11:59:34;11.00;;;7.27;;
16906;SDS011;8570;52.380;4.654;2023-12-04T12:04:39;9.83;;;7.03;;
16906;SDS011;8570;52.380;4.654;2023-12-04T12:09:42;8.20;;;6.60;;
16906;SDS011;8570;52.380;4.654;2023-12-04T12:14:43;10.37;;;6.57;;
16906;SDS011;8570;52.380;4.654;2023-12-04T12:19:47;9.30;;;6.77;;
16906;SDS011;8570;52.380;4.654;2023-12-04T12:24:49;11.07;;;7.43;;
16906;SDS011;8570;52.380;4.654;2023-12-04T12:29:51;9.37;;;7.00;;
16906;SDS011;8570;52.380;4.654;2023-12-04T12:34:57;10.80;;;7.60;;
16906;SDS011;8570;52.380;4.654;2023-12-04T12:39:59;10.30;;;7.70;;
16906;SDS011;8570;52.380;4.654;2023-12-04T12:45:01;10.43;;;7.90;;
16906;SDS011;8570;52.380;4.654;2023-12-04T12:50:07;12.30;;;7.90;;
16906;SDS011;8570;52.380;4.654;2023-12-04T12:55:22;11.93;;;8.10;;
16906;SDS011;8570;52.380;4.654;2023-12-04T13:00:26;12.63;;;8.60;;
16906;SDS011;8570;52.380;4.654;2023-12-04T13:05:29;13.20;;;8.17;;
16906;SDS011;8570;52.380;4.654;2023-12-04T13:10:31;10.80;;;8.00;;
16906;SDS011;8570;52.380;4.654;2023-12-04T13:15:33;10.63;;;8.23;;
16906;SDS011;8570;52.380;4.654;2023-12-04T13:20:37;11.63;;;8.40;;
16906;SDS011;8570;52.380;4.654;2023-12-04T13:25:38;10.33;;;8.23;;
16906;SDS011;8570;52.380;4.654;2023-12-04T13:30:40;12.40;;;8.17;;
16906;SDS011;8570;52.380;4.654;2023-12-04T13:35:44;13.83;;;8.70;;
16906;SDS011;8570;52.380;4.654;2023-12-04T13:40:46;13.80;;;8.30;;
16906;SDS011;8570;52.380;4.654;2023-12-04T13:45:59;11.30;;;8.80;;
16906;SDS011;8570;52.380;4.654;2023-12-04T13:51:08;13.80;;;9.03;;
16906;SDS011;8570;52.380;4.654;2023-12-04T13:56:11;10.97;;;8.73;;
16906;SDS011;8570;52.380;4.654;2023-12-04T14:01:25;10.43;;;7.40;;
16906;SDS011;8570;52.380;4.654;2023-12-04T14:06:30;15.73;;;9.03;;
16906;SDS011;8570;52.380;4.654;2023-12-04T14:11:33;13.87;;;8.60;;
16906;SDS011;8570;52.380;4.654;2023-12-04T14:16:34;11.53;;;8.87;;
16906;SDS011;8570;52.380;4.654;2023-12-04T14:21:38;10.53;;;8.57;;
16906;SDS011;8570;52.380;4.654;2023-12-04T14:26:40;11.63;;;8.63;;
16906;SDS011;8570;52.380;4.654;2023-12-04T14:31:42;11.77;;;8.27;;
16906;SDS011;8570;52.380;4.654;2023-12-04T14:36:45;12.43;;;8.70;;
16906;SDS011;8570;52.380;4.654;2023-12-04T14:41:47;12.20;;;8.90;;
16906;SDS011;8570;52.380;4.654;2023-12-04T14:46:49;10.03;;;8.17;;
16906;SDS011;8570;52.380;4.654;2023-12-04T14:51:52;11.43;;;8.60;;
16906;SDS011;8570;52.380;4.654;2023-12-04T14:56:54;10.90;;;8.47;;
16906;SDS011;8570;52.380;4.654;2023-12-04T15:02:13;12.23;;;8.83;;
16906;SDS011;8570;52.380;4.654;2023-12-04T15:07:34;13.47;;;8.53;;
16906;SDS011;8570;52.380;4.654;2023-12-04T15:12:50;14.00;;;8.63;;
16906;SDS011;8570;52.380;4.654;2023-12-04T15:18:29;10.83;;;8.20;;
16906;SDS011;8570;52.380;4.654;2023-12-04T15:23:44;11.93;;;8.73;;
16906;SDS011;8570;52.380;4.654;2023-12-04T15:28:46;12.37;;;8.67;;
16906;SDS011;8570;52.380;4.654;2023-12-04T15:33:50;12.40;;;8.50;;
16906;SDS011;8570;52.380;4.654;2023-12-04T15:38:53;12.40;;;9.10;;
16906;SDS011;8570;52.380;4.654;2023-12-04T15:43:55;11.27;;;8.87;;
16906;SDS011;8570;52.380;4.654;2023-12-04T15:48:57;14.77;;;8.73;;
16906;SDS011;8570;52.380;4.654;2023-12-04T15:54:00;12.83;;;9.47;;
16906;SDS011;8570;52.380;4.654;2023-12-04T15:59:02;11.27;;;8.77;;
16906;SDS011;8570;52.380;4.654;2023-12-04T16:04:04;11.93;;;9.47;;
16906;SDS011;8570;52.380;4.654;2023-12-04T16:09:07;12.48;;;8.68;;
16906;SDS011;8570;52.380;4.654;2023-12-04T16:14:13;12.97;;;9.77;;
16906;SDS011;8570;52.380;4.654;2023-12-04T16:19:15;14.33;;;9.73;;
16906;SDS011;8570;52.380;4.654;2023-12-04T16:24:18;11.73;;;9.23;;
16906;SDS011;8570;52.380;4.654;2023-12-04T16:29:23;14.90;;;9.90;;
16906;SDS011;8570;52.380;4.654;2023-12-04T16:34:28;13.10;;;9.83;;
16906;SDS011;8570;52.380;4.654;2023-12-04T16:39:31;12.87;;;9.27;;
16906;SDS011;8570;52.380;4.654;2023-12-04T16:44:33;13.57;;;9.50;;
16906;SDS011;8570;52.380;4.654;2023-12-04T16:49:35;13.70;;;10.43;;
16906;SDS011;8570;52.380;4.654;2023-12-04T16:54:38;11.97;;;9.57;;
16906;SDS011;8570;52.380;4.654;2023-12-04T16:59:40;12.30;;;9.73;;
16906;SDS011;8570;52.380;4.654;2023-12-04T17:04:42;14.27;;;11.50;;
16906;SDS011;8570;52.380;4.654;2023-12-04T17:09:45;12.53;;;10.30;;
16906;SDS011;8570;52.380;4.654;2023-12-04T17:14:47;16.50;;;10.70;;
16906;SDS011;8570;52.380;4.654;2023-12-04T17:19:49;14.40;;;10.57;;
16906;SDS011;8570;52.380;4.654;2023-12-04T17:24:52;14.90;;;10.73;;
16906;SDS011;8570;52.380;4.654;2023-12-04T17:29:54;14.13;;;10.73;;
16906;SDS011;8570;52.380;4.654;2023-12-04T17:34:56;13.73;;;10.13;;
16906;SDS011;8570;52.380;4.654;2023-12-04T17:39:59;15.57;;;10.87;;
16906;SDS011;8570;52.380;4.654;2023-12-04T17:45:01;15.73;;;12.40;;
16906;SDS011;8570;52.380;4.654;2023-12-04T17:50:04;15.73;;;11.33;;
16906;SDS011;8570;52.380;4.654;2023-12-04T17:55:11;15.23;;;11.50;;
16906;SDS011;8570;52.380;4.654;2023-12-04T18:00:13;15.87;;;11.70;;
16906;SDS011;8570;52.380;4.654;2023-12-04T18:05:17;16.97;;;11.80;;
16906;SDS011;8570;52.380;4.654;2023-12-04T18:10:22;13.87;;;11.40;;
16906;SDS011;8570;52.380;4.654;2023-12-04T18:15:24;14.43;;;11.70;;
16906;SDS011;8570;52.380;4.654;2023-12-04T18:20:27;15.73;;;12.60;;
16906;SDS011;8570;52.380;4.654;2023-12-04T18:25:30;16.47;;;12.90;;
16906;SDS011;8570;52.380;4.654;2023-12-04T18:30:33;16.73;;;13.40;;
16906;SDS011;8570;52.380;4.654;2023-12-04T18:35:36;18.30;;;13.83;;
16906;SDS011;8570;52.380;4.654;2023-12-04T18:40:40;18.40;;;15.27;;
16906;SDS011;8570;52.380;4.654;2023-12-04T18:45:42;18.83;;;14.97;;
16906;SDS011;8570;52.380;4.654;2023-12-04T18:50:45;21.80;;;17.30;;
16906;SDS011;8570;52.380;4.654;2023-12-04T18:55:51;20.50;;;15.57;;
16906;SDS011;8570;52.380;4.654;2023-12-04T19:00:56;19.07;;;16.63;;
16906;SDS011;8570;52.380;4.654;2023-12-04T19:05:58;21.20;;;17.40;;
16906;SDS011;8570;52.380;4.654;2023-12-04T19:11:01;21.93;;;17.73;;
16906;SDS011;8570;52.380;4.654;2023-12-04T19:16:03;21.07;;;17.40;;
16906;SDS011;8570;52.380;4.654;2023-12-04T19:21:06;19.47;;;17.23;;
16906;SDS011;8570;52.380;4.654;2023-12-04T19:26:11;20.53;;;17.20;;
16906;SDS011;8570;52.380;4.654;2023-12-04T19:31:13;23.00;;;18.27;;
16906;SDS011;8570;52.380;4.654;2023-12-04T19:36:16;21.37;;;18.37;;
16906;SDS011;8570;52.380;4.654;2023-12-04T19:41:20;21.17;;;17.53;;
16906;SDS011;8570;52.380;4.654;2023-12-04T19:46:30;22.93;;;18.20;;
16906;SDS011;8570;52.380;4.654;2023-12-04T19:51:32;22.87;;;18.13;;
16906;SDS011;8570;52.380;4.654;2023-12-04T19:56:35;22.70;;;19.53;;
16906;SDS011;8570;52.380;4.654;2023-12-04T20:01:37;23.83;;;19.33;;
16906;SDS011;8570;52.380;4.654;2023-12-04T20:06:39;22.50;;;19.00;;
16906;SDS011;8570;52.380;4.654;2023-12-04T20:11:44;21.43;;;18.40;;
16906;SDS011;8570;52.380;4.654;2023-12-04T20:16:46;20.23;;;17.50;;
16906;SDS011;8570;52.380;4.654;2023-12-04T20:21:50;23.37;;;19.57;;
16906;SDS011;8570;52.380;4.654;2023-12-04T20:26:53;19.87;;;17.77;;
16906;SDS011;8570;52.380;4.654;2023-12-04T20:31:55;20.23;;;17.07;;
16906;SDS011;8570;52.380;4.654;2023-12-04T20:36:58;20.00;;;16.97;;
16906;SDS011;8570;52.380;4.654;2023-12-04T20:42:03;21.73;;;17.30;;
16906;SDS011;8570;52.380;4.654;2023-12-04T20:47:05;20.47;;;17.50;;
16906;SDS011;8570;52.380;4.654;2023-12-04T20:52:07;19.87;;;17.33;;
16906;SDS011;8570;52.380;4.654;2023-12-04T20:57:10;18.07;;;15.93;;
16906;SDS011;8570;52.380;4.654;2023-12-04T21:02:12;19.70;;;16.77;;
16906;SDS011;8570;52.380;4.654;2023-12-04T21:07:14;19.10;;;16.80;;
16906;SDS011;8570;52.380;4.654;2023-12-04T21:12:17;18.57;;;15.93;;
16906;SDS011;8570;52.380;4.654;2023-12-04T21:17:19;18.73;;;16.20;;
16906;SDS011;8570;52.380;4.654;2023-12-04T21:22:21;17.43;;;15.40;;
16906;SDS011;8570;52.380;4.654;2023-12-04T21:27:26;18.90;;;16.03;;
16906;SDS011;8570;52.380;4.654;2023-12-04T21:32:30;19.93;;;16.87;;
16906;SDS011;8570;52.380;4.654;2023-12-04T21:37:32;17.40;;;15.27;;
16906;SDS011;8570;52.380;4.654;2023-12-04T21:42:35;19.47;;;15.30;;
16906;SDS011;8570;52.380;4.654;2023-12-04T21:47:37;20.10;;;16.33;;
16906;SDS011;8570;52.380;4.654;2023-12-04T21:52:39;19.00;;;15.47;;
16906;SDS011;8570;52.380;4.654;2023-12-04T21:57:42;18.27;;;15.90;;
16906;SDS011;8570;52.380;4.654;2023-12-04T22:02:47;18.53;;;15.73;;
16906;SDS011;8570;52.380;4.654;2023-12-04T22:07:49;20.23;;;16.53;;
16906;SDS011;8570;52.380;4.654;2023-12-04T22:12:52;19.00;;;16.37;;
16906;SDS011;8570;52.380;4.654;2023-12-04T22:17:54;18.83;;;15.83;;
16906;SDS011;8570;52.380;4.654;2023-12-04T22:22:56;19.70;;;17.43;;
16906;SDS011;8570;52.380;4.654;2023-12-04T22:27:59;22.93;;;18.47;;
16906;SDS011;8570;52.380;4.654;2023-12-04T22:33:04;21.60;;;17.67;;
16906;SDS011;8570;52.380;4.654;2023-12-04T22:38:07;23.67;;;19.03;;
16906;SDS011;8570;52.380;4.654;2023-12-04T22:43:15;21.90;;;19.00;;
16906;SDS011;8570;52.380;4.654;2023-12-04T22:48:20;22.23;;;19.17;;
16906;SDS011;8570;52.380;4.654;2023-12-04T22:53:24;24.03;;;19.37;;
16906;SDS011;8570;52.380;4.654;2023-12-04T22:58:27;23.50;;;18.97;;
16906;SDS011;8570;52.380;4.654;2023-12-04T23:03:29;24.17;;;19.97;;
16906;SDS011;8570;52.380;4.654;2023-12-04T23:08:34;27.40;;;20.43;;
16906;SDS011;8570;52.380;4.654;2023-12-04T23:13:38;25.03;;;19.40;;
16906;SDS011;8570;52.380;4.654;2023-12-04T23:18:40;24.33;;;19.37;;
16906;SDS011;8570;52.380;4.654;2023-12-04T23:23:42;24.77;;;19.60;;
16906;SDS011;8570;52.380;4.654;2023-12-04T23:28:45;24.57;;;18.63;;
16906;SDS011;8570;52.380;4.654;2023-12-04T23:33:47;24.63;;;19.93;;
16906;SDS011;8570;52.380;4.654;2023-12-04T23:38:49;26.27;;;20.63;;
16906;SDS011;8570;52.380;4.654;2023-12-04T23:43:55;24.67;;;19.20;;
16906;SDS011;8570;52.380;4.654;2023-12-04T23:48:57;23.00;;;18.50;;
16906;SDS011;8570;52.380;4.654;2023-12-04T23:54:01;24.93;;;19.67;;
16906;SDS011;8570;52.380;4.654;2023-12-04T23:59:04;25.07;;;20.47;;
